Main page
METAR-TAF:

METAR-TAF

Airports :

Bamako–Modibo Keïta International Airport

Bamako, Mali

latitude: 12-32N, longitude: 007-57W, elevation: 380 m

Current weather observation

The report was made 30 minutes ago, at 05:00 UTC
Wind 5 kt from the North/Northeast
Temperature 28°C
Humidity 25%
Pressure 1010 hPa
Visibility 10 km or more
no clouds below 1500 m and no cumulonimbus

METAR: GABS 240500Z 02005KT CAVOK 28/06 Q1010 NOSIG

Time: 05:30 (05:30 UTC)

Forecast

The report was made 6 hours and 0 minutes ago, at 23:30 UTC
Forecast valid from 24 at 00 UTC to 25 at 06 UTC
Wind 8 kt from the South/Southwest
Visibility 10 km or more
no clouds below 1500 m and no cumulonimbus

TAF: GABS 232330Z 2400/2506 21008KT CAVOK

Weather observations and forecasts of more than 4000 airports (METAR and TAF reports).

The available stations are represented by yellow and red dots on the map.

Hover mouse over dot to see the name of the station.

Then click to see weather observations and forecasts.

To change the map : click on the green buttons with a black cross to zoom in, on the green button with a dash to zoom out, or on the green arrows for adjacent maps.


METAR-TAF: